sensor_id;sensor_type;location;lat;lon;timestamp;P1;durP1;ratioP1;P2;durP2;ratioP2
70213;SDS011;60138;55.808;37.078;2023-07-02T00:00:49;11.65;;;7.00;;
70213;SDS011;60138;55.808;37.078;2023-07-02T00:03:14;9.30;;;6.20;;
70213;SDS011;60138;55.808;37.078;2023-07-02T00:05:40;11.40;;;7.03;;
70213;SDS011;60138;55.808;37.078;2023-07-02T00:08:06;13.60;;;7.43;;
70213;SDS011;60138;55.808;37.078;2023-07-02T00:10:32;9.33;;;7.57;;
70213;SDS011;60138;55.808;37.078;2023-07-02T00:12:57;10.60;;;7.15;;
70213;SDS011;60138;55.808;37.078;2023-07-02T00:15:23;14.77;;;7.57;;
70213;SDS011;60138;55.808;37.078;2023-07-02T00:17:49;11.25;;;7.65;;
70213;SDS011;60138;55.808;37.078;2023-07-02T00:20:15;10.63;;;6.97;;
70213;SDS011;60138;55.808;37.078;2023-07-02T00:22:40;11.98;;;7.97;;
70213;SDS011;60138;55.808;37.078;2023-07-02T00:25:09;13.30;;;7.03;;
70213;SDS011;60138;55.808;37.078;2023-07-02T00:27:34;9.83;;;6.87;;
70213;SDS011;60138;55.808;37.078;2023-07-02T00:30:00;12.98;;;7.40;;
70213;SDS011;60138;55.808;37.078;2023-07-02T00:32:26;15.77;;;8.60;;
70213;SDS011;60138;55.808;37.078;2023-07-02T00:34:53;11.07;;;7.53;;
70213;SDS011;60138;55.808;37.078;2023-07-02T00:37:19;13.00;;;7.93;;
70213;SDS011;60138;55.808;37.078;2023-07-02T00:39:47;12.32;;;7.85;;
70213;SDS011;60138;55.808;37.078;2023-07-02T00:42:13;14.20;;;7.95;;
70213;SDS011;60138;55.808;37.078;2023-07-02T00:44:39;9.35;;;6.97;;
70213;SDS011;60138;55.808;37.078;2023-07-02T00:47:05;9.55;;;7.20;;
70213;SDS011;60138;55.808;37.078;2023-07-02T00:49:31;10.68;;;7.47;;
70213;SDS011;60138;55.808;37.078;2023-07-02T00:51:56;13.70;;;7.60;;
70213;SDS011;60138;55.808;37.078;2023-07-02T00:54:22;12.65;;;7.75;;
70213;SDS011;60138;55.808;37.078;2023-07-02T00:56:48;11.40;;;7.73;;
70213;SDS011;60138;55.808;37.078;2023-07-02T00:59:14;13.35;;;7.78;;
70213;SDS011;60138;55.808;37.078;2023-07-02T01:01:40;10.75;;;7.50;;
70213;SDS011;60138;55.808;37.078;2023-07-02T01:04:06;12.50;;;7.53;;
70213;SDS011;60138;55.808;37.078;2023-07-02T01:06:32;13.30;;;7.88;;
70213;SDS011;60138;55.808;37.078;2023-07-02T01:09:01;9.40;;;6.90;;
70213;SDS011;60138;55.808;37.078;2023-07-02T01:14:19;16.35;;;7.72;;
70213;SDS011;60138;55.808;37.078;2023-07-02T01:17:02;11.20;;;7.97;;
70213;SDS011;60138;55.808;37.078;2023-07-02T01:22:15;12.40;;;7.30;;
70213;SDS011;60138;55.808;37.078;2023-07-02T01:24:41;12.37;;;8.00;;
70213;SDS011;60138;55.808;37.078;2023-07-02T01:27:07;12.70;;;7.03;;
70213;SDS011;60138;55.808;37.078;2023-07-02T01:29:33;9.73;;;7.78;;
70213;SDS011;60138;55.808;37.078;2023-07-02T01:31:59;9.98;;;6.90;;
70213;SDS011;60138;55.808;37.078;2023-07-02T01:34:25;10.40;;;6.90;;
70213;SDS011;60138;55.808;37.078;2023-07-02T01:36:51;9.65;;;7.25;;
70213;SDS011;60138;55.808;37.078;2023-07-02T01:39:17;12.20;;;7.53;;
70213;SDS011;60138;55.808;37.078;2023-07-02T01:41:50;12.00;;;7.32;;
70213;SDS011;60138;55.808;37.078;2023-07-02T01:44:17;11.43;;;7.82;;
70213;SDS011;60138;55.808;37.078;2023-07-02T01:46:44;12.02;;;7.20;;
70213;SDS011;60138;55.808;37.078;2023-07-02T01:49:11;10.60;;;8.02;;
70213;SDS011;60138;55.808;37.078;2023-07-02T01:51:37;9.50;;;7.17;;
70213;SDS011;60138;55.808;37.078;2023-07-02T01:54:02;11.07;;;7.47;;
70213;SDS011;60138;55.808;37.078;2023-07-02T01:56:28;10.60;;;7.90;;
70213;SDS011;60138;55.808;37.078;2023-07-02T01:58:54;11.50;;;7.53;;
70213;SDS011;60138;55.808;37.078;2023-07-02T02:01:19;9.77;;;7.10;;
70213;SDS011;60138;55.808;37.078;2023-07-02T02:03:45;9.55;;;6.57;;
70213;SDS011;60138;55.808;37.078;2023-07-02T02:06:11;17.00;;;8.00;;
70213;SDS011;60138;55.808;37.078;2023-07-02T02:08:38;10.52;;;7.13;;
70213;SDS011;60138;55.808;37.078;2023-07-02T02:11:03;10.98;;;7.25;;
70213;SDS011;60138;55.808;37.078;2023-07-02T02:13:30;9.57;;;6.90;;
70213;SDS011;60138;55.808;37.078;2023-07-02T02:15:56;11.00;;;7.22;;
70213;SDS011;60138;55.808;37.078;2023-07-02T02:18:21;9.48;;;6.53;;
70213;SDS011;60138;55.808;37.078;2023-07-02T02:21:07;14.90;;;6.70;;
70213;SDS011;60138;55.808;37.078;2023-07-02T02:23:34;10.82;;;6.22;;
70213;SDS011;60138;55.808;37.078;2023-07-02T02:26:00;11.40;;;7.05;;
70213;SDS011;60138;55.808;37.078;2023-07-02T02:28:25;9.75;;;6.22;;
70213;SDS011;60138;55.808;37.078;2023-07-02T02:30:51;12.03;;;6.53;;
70213;SDS011;60138;55.808;37.078;2023-07-02T02:33:17;15.80;;;7.00;;
70213;SDS011;60138;55.808;37.078;2023-07-02T02:35:44;16.20;;;6.68;;
70213;SDS011;60138;55.808;37.078;2023-07-02T02:38:10;7.80;;;6.03;;
70213;SDS011;60138;55.808;37.078;2023-07-02T02:40:35;9.32;;;5.80;;
70213;SDS011;60138;55.808;37.078;2023-07-02T02:43:04;9.70;;;6.07;;
70213;SDS011;60138;55.808;37.078;2023-07-02T02:45:30;9.80;;;6.23;;
70213;SDS011;60138;55.808;37.078;2023-07-02T02:47:56;8.68;;;6.25;;
70213;SDS011;60138;55.808;37.078;2023-07-02T02:50:22;8.87;;;6.70;;
70213;SDS011;60138;55.808;37.078;2023-07-02T02:52:47;10.75;;;6.20;;
70213;SDS011;60138;55.808;37.078;2023-07-02T02:55:13;13.40;;;7.57;;
70213;SDS011;60138;55.808;37.078;2023-07-02T02:57:39;8.10;;;6.17;;
70213;SDS011;60138;55.808;37.078;2023-07-02T03:00:05;10.63;;;6.53;;
70213;SDS011;60138;55.808;37.078;2023-07-02T03:02:31;10.05;;;6.10;;
70213;SDS011;60138;55.808;37.078;2023-07-02T03:04:57;9.43;;;6.87;;
70213;SDS011;60138;55.808;37.078;2023-07-02T03:07:23;8.02;;;5.60;;
70213;SDS011;60138;55.808;37.078;2023-07-02T03:09:48;10.50;;;6.20;;
70213;SDS011;60138;55.808;37.078;2023-07-02T03:12:14;9.85;;;6.65;;
70213;SDS011;60138;55.808;37.078;2023-07-02T03:14:40;8.07;;;5.73;;
70213;SDS011;60138;55.808;37.078;2023-07-02T03:17:06;10.80;;;6.35;;
70213;SDS011;60138;55.808;37.078;2023-07-02T03:19:31;7.45;;;5.95;;
70213;SDS011;60138;55.808;37.078;2023-07-02T03:21:57;8.77;;;5.83;;
70213;SDS011;60138;55.808;37.078;2023-07-02T03:24:23;7.57;;;5.83;;
70213;SDS011;60138;55.808;37.078;2023-07-02T03:26:48;13.40;;;6.25;;
70213;SDS011;60138;55.808;37.078;2023-07-02T03:29:14;8.13;;;6.10;;
70213;SDS011;60138;55.808;37.078;2023-07-02T03:31:40;9.30;;;5.82;;
70213;SDS011;60138;55.808;37.078;2023-07-02T03:34:07;8.35;;;6.22;;
70213;SDS011;60138;55.808;37.078;2023-07-02T03:36:34;8.55;;;6.18;;
70213;SDS011;60138;55.808;37.078;2023-07-02T03:39:01;17.77;;;7.30;;
70213;SDS011;60138;55.808;37.078;2023-07-02T03:41:27;9.10;;;6.40;;
70213;SDS011;60138;55.808;37.078;2023-07-02T03:43:53;10.60;;;5.97;;
70213;SDS011;60138;55.808;37.078;2023-07-02T03:46:19;8.07;;;6.28;;
70213;SDS011;60138;55.808;37.078;2023-07-02T03:48:45;10.40;;;5.93;;
70213;SDS011;60138;55.808;37.078;2023-07-02T03:51:10;14.00;;;5.97;;
70213;SDS011;60138;55.808;37.078;2023-07-02T03:53:36;8.70;;;5.88;;
70213;SDS011;60138;55.808;37.078;2023-07-02T03:56:02;8.53;;;5.37;;
70213;SDS011;60138;55.808;37.078;2023-07-02T03:58:28;9.82;;;6.00;;
70213;SDS011;60138;55.808;37.078;2023-07-02T04:00:54;9.75;;;6.00;;
70213;SDS011;60138;55.808;37.078;2023-07-02T04:03:19;7.68;;;5.22;;
70213;SDS011;60138;55.808;37.078;2023-07-02T04:05:45;9.77;;;5.50;;
70213;SDS011;60138;55.808;37.078;2023-07-02T04:08:10;7.75;;;5.07;;
70213;SDS011;60138;55.808;37.078;2023-07-02T04:10:36;12.03;;;6.27;;
70213;SDS011;60138;55.808;37.078;2023-07-02T04:13:02;11.13;;;5.47;;
70213;SDS011;60138;55.808;37.078;2023-07-02T04:15:28;8.53;;;5.23;;
70213;SDS011;60138;55.808;37.078;2023-07-02T04:17:54;8.27;;;5.63;;
70213;SDS011;60138;55.808;37.078;2023-07-02T04:20:19;10.40;;;5.67;;
70213;SDS011;60138;55.808;37.078;2023-07-02T04:22:46;11.77;;;5.63;;
70213;SDS011;60138;55.808;37.078;2023-07-02T04:25:12;10.23;;;5.85;;
70213;SDS011;60138;55.808;37.078;2023-07-02T04:27:38;9.77;;;5.35;;
70213;SDS011;60138;55.808;37.078;2023-07-02T04:30:04;8.67;;;5.07;;
70213;SDS011;60138;55.808;37.078;2023-07-02T04:32:32;10.90;;;5.10;;
70213;SDS011;60138;55.808;37.078;2023-07-02T04:34:57;13.07;;;5.67;;
70213;SDS011;60138;55.808;37.078;2023-07-02T04:37:23;9.07;;;5.43;;
70213;SDS011;60138;55.808;37.078;2023-07-02T04:39:49;9.43;;;5.50;;
70213;SDS011;60138;55.808;37.078;2023-07-02T04:42:14;8.77;;;5.80;;
70213;SDS011;60138;55.808;37.078;2023-07-02T04:44:40;9.32;;;5.50;;
70213;SDS011;60138;55.808;37.078;2023-07-02T04:47:06;10.88;;;7.00;;
70213;SDS011;60138;55.808;37.078;2023-07-02T04:49:32;8.87;;;5.00;;
70213;SDS011;60138;55.808;37.078;2023-07-02T04:51:57;7.22;;;4.72;;
70213;SDS011;60138;55.808;37.078;2023-07-02T04:54:23;10.38;;;5.00;;
70213;SDS011;60138;55.808;37.078;2023-07-02T04:56:49;8.75;;;4.78;;
70213;SDS011;60138;55.808;37.078;2023-07-02T04:59:15;7.80;;;5.47;;
70213;SDS011;60138;55.808;37.078;2023-07-02T05:01:41;7.45;;;4.80;;
70213;SDS011;60138;55.808;37.078;2023-07-02T05:04:09;7.72;;;4.75;;
70213;SDS011;60138;55.808;37.078;2023-07-02T05:06:35;15.02;;;5.50;;
70213;SDS011;60138;55.808;37.078;2023-07-02T05:09:00;11.77;;;4.80;;
70213;SDS011;60138;55.808;37.078;2023-07-02T05:11:26;14.52;;;6.05;;
70213;SDS011;60138;55.808;37.078;2023-07-02T05:13:52;7.82;;;5.22;;
70213;SDS011;60138;55.808;37.078;2023-07-02T05:16:17;9.37;;;5.00;;
70213;SDS011;60138;55.808;37.078;2023-07-02T05:18:43;10.02;;;5.10;;
70213;SDS011;60138;55.808;37.078;2023-07-02T05:21:09;9.13;;;5.47;;
70213;SDS011;60138;55.808;37.078;2023-07-02T05:23:35;9.05;;;5.25;;
70213;SDS011;60138;55.808;37.078;2023-07-02T05:26:01;9.00;;;6.22;;
70213;SDS011;60138;55.808;37.078;2023-07-02T05:28:27;9.83;;;4.70;;
70213;SDS011;60138;55.808;37.078;2023-07-02T05:30:52;7.53;;;4.75;;
70213;SDS011;60138;55.808;37.078;2023-07-02T05:33:18;9.00;;;4.50;;
70213;SDS011;60138;55.808;37.078;2023-07-02T05:35:44;7.15;;;4.88;;
70213;SDS011;60138;55.808;37.078;2023-07-02T05:38:09;11.03;;;4.80;;
70213;SDS011;60138;55.808;37.078;2023-07-02T05:40:35;8.00;;;4.80;;
70213;SDS011;60138;55.808;37.078;2023-07-02T05:43:01;10.70;;;5.33;;
70213;SDS011;60138;55.808;37.078;2023-07-02T05:45:26;7.32;;;4.95;;
70213;SDS011;60138;55.808;37.078;2023-07-02T05:47:52;10.32;;;5.47;;
70213;SDS011;60138;55.808;37.078;2023-07-02T05:50:18;8.55;;;5.05;;
70213;SDS011;60138;55.808;37.078;2023-07-02T05:52:44;7.07;;;5.00;;
70213;SDS011;60138;55.808;37.078;2023-07-02T05:55:09;7.97;;;4.90;;
70213;SDS011;60138;55.808;37.078;2023-07-02T05:57:36;9.02;;;5.78;;
70213;SDS011;60138;55.808;37.078;2023-07-02T06:00:04;8.00;;;5.10;;
70213;SDS011;60138;55.808;37.078;2023-07-02T06:02:38;9.80;;;5.05;;
70213;SDS011;60138;55.808;37.078;2023-07-02T06:05:04;10.30;;;4.97;;
70213;SDS011;60138;55.808;37.078;2023-07-02T06:07:30;13.20;;;4.72;;
70213;SDS011;60138;55.808;37.078;2023-07-02T06:09:56;8.60;;;5.33;;
70213;SDS011;60138;55.808;37.078;2023-07-02T06:12:22;7.85;;;4.85;;
70213;SDS011;60138;55.808;37.078;2023-07-02T06:14:48;8.27;;;4.00;;
70213;SDS011;60138;55.808;37.078;2023-07-02T06:17:14;10.20;;;5.00;;
70213;SDS011;60138;55.808;37.078;2023-07-02T06:19:39;7.45;;;4.75;;
70213;SDS011;60138;55.808;37.078;2023-07-02T06:22:05;8.13;;;4.43;;
70213;SDS011;60138;55.808;37.078;2023-07-02T06:24:31;8.80;;;4.68;;
70213;SDS011;60138;55.808;37.078;2023-07-02T06:26:57;8.27;;;5.37;;
70213;SDS011;60138;55.808;37.078;2023-07-02T06:29:23;9.07;;;4.63;;
70213;SDS011;60138;55.808;37.078;2023-07-02T06:31:49;7.72;;;4.30;;
70213;SDS011;60138;55.808;37.078;2023-07-02T06:34:15;11.02;;;4.50;;
70213;SDS011;60138;55.808;37.078;2023-07-02T06:36:41;6.57;;;4.13;;
70213;SDS011;60138;55.808;37.078;2023-07-02T06:39:08;9.48;;;4.35;;
70213;SDS011;60138;55.808;37.078;2023-07-02T06:41:33;6.28;;;4.10;;
70213;SDS011;60138;55.808;37.078;2023-07-02T06:43:59;6.47;;;3.87;;
70213;SDS011;60138;55.808;37.078;2023-07-02T06:46:25;8.00;;;4.50;;
70213;SDS011;60138;55.808;37.078;2023-07-02T06:48:51;6.37;;;3.87;;
70213;SDS011;60138;55.808;37.078;2023-07-02T06:51:16;6.70;;;3.25;;
70213;SDS011;60138;55.808;37.078;2023-07-02T06:53:42;7.67;;;3.77;;
70213;SDS011;60138;55.808;37.078;2023-07-02T06:56:09;6.68;;;3.25;;
70213;SDS011;60138;55.808;37.078;2023-07-02T06:58:36;8.52;;;3.85;;
70213;SDS011;60138;55.808;37.078;2023-07-02T07:01:02;8.32;;;3.65;;
70213;SDS011;60138;55.808;37.078;2023-07-02T07:03:30;10.90;;;3.67;;
70213;SDS011;60138;55.808;37.078;2023-07-02T07:05:56;8.30;;;3.70;;
70213;SDS011;60138;55.808;37.078;2023-07-02T07:08:21;7.90;;;3.80;;
70213;SDS011;60138;55.808;37.078;2023-07-02T07:10:47;10.27;;;3.42;;
70213;SDS011;60138;55.808;37.078;2023-07-02T07:13:13;6.53;;;3.67;;
70213;SDS011;60138;55.808;37.078;2023-07-02T07:15:38;7.97;;;3.80;;
70213;SDS011;60138;55.808;37.078;2023-07-02T07:18:04;9.87;;;3.70;;
70213;SDS011;60138;55.808;37.078;2023-07-02T07:20:30;10.60;;;3.20;;
70213;SDS011;60138;55.808;37.078;2023-07-02T07:22:56;6.72;;;3.63;;
70213;SDS011;60138;55.808;37.078;2023-07-02T07:25:22;7.50;;;3.37;;
70213;SDS011;60138;55.808;37.078;2023-07-02T07:27:48;7.63;;;3.17;;
70213;SDS011;60138;55.808;37.078;2023-07-02T07:30:14;10.35;;;3.78;;
70213;SDS011;60138;55.808;37.078;2023-07-02T07:32:40;10.23;;;3.50;;
70213;SDS011;60138;55.808;37.078;2023-07-02T07:35:06;5.88;;;3.35;;
70213;SDS011;60138;55.808;37.078;2023-07-02T07:37:32;7.05;;;3.17;;
70213;SDS011;60138;55.808;37.078;2023-07-02T07:39:58;4.80;;;2.80;;
70213;SDS011;60138;55.808;37.078;2023-07-02T07:42:24;6.72;;;3.30;;
70213;SDS011;60138;55.808;37.078;2023-07-02T07:44:49;7.87;;;3.43;;
70213;SDS011;60138;55.808;37.078;2023-07-02T07:47:15;11.27;;;3.63;;
70213;SDS011;60138;55.808;37.078;2023-07-02T07:49:41;7.30;;;3.67;;
70213;SDS011;60138;55.808;37.078;2023-07-02T07:52:07;8.63;;;3.60;;
70213;SDS011;60138;55.808;37.078;2023-07-02T07:54:33;8.10;;;3.88;;
70213;SDS011;60138;55.808;37.078;2023-07-02T07:56:59;10.32;;;3.42;;
70213;SDS011;60138;55.808;37.078;2023-07-02T07:59:24;7.30;;;3.77;;
70213;SDS011;60138;55.808;37.078;2023-07-02T08:01:50;7.80;;;4.18;;
70213;SDS011;60138;55.808;37.078;2023-07-02T08:04:16;7.57;;;3.40;;
70213;SDS011;60138;55.808;37.078;2023-07-02T08:06:41;8.30;;;3.60;;
70213;SDS011;60138;55.808;37.078;2023-07-02T08:09:07;7.18;;;3.60;;
70213;SDS011;60138;55.808;37.078;2023-07-02T08:11:33;7.10;;;3.67;;
70213;SDS011;60138;55.808;37.078;2023-07-02T08:13:59;8.33;;;3.03;;
70213;SDS011;60138;55.808;37.078;2023-07-02T08:16:24;8.95;;;4.43;;
70213;SDS011;60138;55.808;37.078;2023-07-02T08:18:50;8.20;;;3.20;;
70213;SDS011;60138;55.808;37.078;2023-07-02T08:21:16;10.35;;;3.63;;
70213;SDS011;60138;55.808;37.078;2023-07-02T08:23:44;7.67;;;3.57;;
70213;SDS011;60138;55.808;37.078;2023-07-02T08:26:10;14.77;;;4.13;;
70213;SDS011;60138;55.808;37.078;2023-07-02T08:28:36;9.43;;;4.10;;
70213;SDS011;60138;55.808;37.078;2023-07-02T08:31:02;8.23;;;3.90;;
70213;SDS011;60138;55.808;37.078;2023-07-02T08:33:27;8.15;;;4.10;;
70213;SDS011;60138;55.808;37.078;2023-07-02T08:35:53;10.33;;;3.63;;
70213;SDS011;60138;55.808;37.078;2023-07-02T08:38:19;6.83;;;3.67;;
70213;SDS011;60138;55.808;37.078;2023-07-02T08:40:44;7.32;;;3.05;;
70213;SDS011;60138;55.808;37.078;2023-07-02T08:43:10;11.43;;;3.77;;
70213;SDS011;60138;55.808;37.078;2023-07-02T08:45:36;7.50;;;3.67;;
70213;SDS011;60138;55.808;37.078;2023-07-02T08:48:01;7.30;;;3.13;;
70213;SDS011;60138;55.808;37.078;2023-07-02T08:50:28;8.15;;;3.65;;
70213;SDS011;60138;55.808;37.078;2023-07-02T08:52:53;9.88;;;3.88;;
70213;SDS011;60138;55.808;37.078;2023-07-02T08:55:19;6.83;;;3.40;;
70213;SDS011;60138;55.808;37.078;2023-07-02T08:57:55;8.23;;;3.88;;
70213;SDS011;60138;55.808;37.078;2023-07-02T09:00:22;11.77;;;3.50;;
70213;SDS011;60138;55.808;37.078;2023-07-02T09:02:48;7.37;;;3.30;;
70213;SDS011;60138;55.808;37.078;2023-07-02T09:05:14;8.13;;;3.20;;
70213;SDS011;60138;55.808;37.078;2023-07-02T09:07:43;8.90;;;3.47;;
70213;SDS011;60138;55.808;37.078;2023-07-02T09:10:09;13.77;;;4.97;;
70213;SDS011;60138;55.808;37.078;2023-07-02T09:12:35;8.88;;;3.80;;
70213;SDS011;60138;55.808;37.078;2023-07-02T09:15:04;8.52;;;3.58;;
70213;SDS011;60138;55.808;37.078;2023-07-02T09:17:33;7.30;;;3.17;;
70213;SDS011;60138;55.808;37.078;2023-07-02T09:20:03;11.55;;;3.30;;
70213;SDS011;60138;55.808;37.078;2023-07-02T09:22:31;6.50;;;3.63;;
70213;SDS011;60138;55.808;37.078;2023-07-02T09:24:58;10.68;;;4.43;;
70213;SDS011;60138;55.808;37.078;2023-07-02T09:27:40;7.33;;;3.50;;
70213;SDS011;60138;55.808;37.078;2023-07-02T09:30:11;9.50;;;4.00;;
70213;SDS011;60138;55.808;37.078;2023-07-02T09:32:38;8.32;;;3.53;;
70213;SDS011;60138;55.808;37.078;2023-07-02T09:35:04;9.17;;;3.00;;
70213;SDS011;60138;55.808;37.078;2023-07-02T09:37:30;7.03;;;2.80;;
70213;SDS011;60138;55.808;37.078;2023-07-02T09:39:56;9.93;;;3.33;;
70213;SDS011;60138;55.808;37.078;2023-07-02T09:42:22;8.20;;;4.45;;
70213;SDS011;60138;55.808;37.078;2023-07-02T09:44:57;8.93;;;2.80;;
70213;SDS011;60138;55.808;37.078;2023-07-02T09:47:24;6.40;;;2.58;;
70213;SDS011;60138;55.808;37.078;2023-07-02T09:49:55;5.97;;;2.70;;
70213;SDS011;60138;55.808;37.078;2023-07-02T09:52:25;7.22;;;3.10;;
70213;SDS011;60138;55.808;37.078;2023-07-02T09:54:51;5.55;;;3.05;;
70213;SDS011;60138;55.808;37.078;2023-07-02T09:57:17;10.77;;;2.83;;
70213;SDS011;60138;55.808;37.078;2023-07-02T09:59:43;13.70;;;3.30;;
70213;SDS011;60138;55.808;37.078;2023-07-02T10:02:09;7.33;;;2.90;;
70213;SDS011;60138;55.808;37.078;2023-07-02T10:04:42;7.60;;;3.08;;
70213;SDS011;60138;55.808;37.078;2023-07-02T10:07:09;5.03;;;2.95;;
70213;SDS011;60138;55.808;37.078;2023-07-02T10:12:24;8.98;;;3.33;;
70213;SDS011;60138;55.808;37.078;2023-07-02T10:14:50;5.80;;;2.73;;
70213;SDS011;60138;55.808;37.078;2023-07-02T10:19:59;7.43;;;2.85;;
70213;SDS011;60138;55.808;37.078;2023-07-02T10:22:29;6.95;;;2.70;;
70213;SDS011;60138;55.808;37.078;2023-07-02T10:24:55;6.17;;;2.77;;
70213;SDS011;60138;55.808;37.078;2023-07-02T10:27:32;4.65;;;2.67;;
70213;SDS011;60138;55.808;37.078;2023-07-02T10:30:05;8.07;;;2.50;;
70213;SDS011;60138;55.808;37.078;2023-07-02T10:32:35;5.95;;;2.70;;
70213;SDS011;60138;55.808;37.078;2023-07-02T10:35:02;7.53;;;3.15;;
70213;SDS011;60138;55.808;37.078;2023-07-02T10:37:42;17.00;;;4.10;;
70213;SDS011;60138;55.808;37.078;2023-07-02T10:40:08;8.52;;;2.75;;
70213;SDS011;60138;55.808;37.078;2023-07-02T10:42:47;6.38;;;2.65;;
70213;SDS011;60138;55.808;37.078;2023-07-02T10:45:14;12.32;;;3.47;;
70213;SDS011;60138;55.808;37.078;2023-07-02T10:47:40;6.43;;;2.92;;
70213;SDS011;60138;55.808;37.078;2023-07-02T10:50:14;6.10;;;2.87;;
70213;SDS011;60138;55.808;37.078;2023-07-02T10:52:41;10.00;;;2.90;;
70213;SDS011;60138;55.808;37.078;2023-07-02T10:55:07;25.42;;;4.60;;
70213;SDS011;60138;55.808;37.078;2023-07-02T10:57:33;6.45;;;2.67;;
70213;SDS011;60138;55.808;37.078;2023-07-02T11:00:06;6.83;;;3.07;;
70213;SDS011;60138;55.808;37.078;2023-07-02T11:02:39;17.92;;;4.50;;
70213;SDS011;60138;55.808;37.078;2023-07-02T11:05:05;6.18;;;2.80;;
70213;SDS011;60138;55.808;37.078;2023-07-02T11:07:32;4.87;;;2.67;;
70213;SDS011;60138;55.808;37.078;2023-07-02T11:09:58;19.77;;;4.10;;
70213;SDS011;60138;55.808;37.078;2023-07-02T11:12:30;7.50;;;2.83;;
70213;SDS011;60138;55.808;37.078;2023-07-02T11:15:16;9.38;;;3.63;;
70213;SDS011;60138;55.808;37.078;2023-07-02T11:17:42;10.00;;;4.70;;
70213;SDS011;60138;55.808;37.078;2023-07-02T11:20:08;7.47;;;3.80;;
70213;SDS011;60138;55.808;37.078;2023-07-02T11:22:36;18.08;;;4.32;;
70213;SDS011;60138;55.808;37.078;2023-07-02T11:25:35;7.57;;;3.42;;
70213;SDS011;60138;55.808;37.078;2023-07-02T11:28:03;9.63;;;3.05;;
70213;SDS011;60138;55.808;37.078;2023-07-02T11:30:30;7.10;;;2.90;;
70213;SDS011;60138;55.808;37.078;2023-07-02T11:32:56;7.88;;;3.33;;
70213;SDS011;60138;55.808;37.078;2023-07-02T11:35:22;7.60;;;3.22;;
70213;SDS011;60138;55.808;37.078;2023-07-02T11:37:59;5.73;;;3.03;;
70213;SDS011;60138;55.808;37.078;2023-07-02T11:40:25;5.22;;;2.70;;
70213;SDS011;60138;55.808;37.078;2023-07-02T11:42:51;7.10;;;3.20;;
70213;SDS011;60138;55.808;37.078;2023-07-02T11:45:16;7.10;;;2.72;;
70213;SDS011;60138;55.808;37.078;2023-07-02T11:47:42;13.83;;;4.60;;
70213;SDS011;60138;55.808;37.078;2023-07-02T11:50:08;13.43;;;3.28;;
70213;SDS011;60138;55.808;37.078;2023-07-02T11:52:33;22.73;;;4.67;;
70213;SDS011;60138;55.808;37.078;2023-07-02T11:54:59;6.30;;;2.70;;
70213;SDS011;60138;55.808;37.078;2023-07-02T11:57:25;16.13;;;3.38;;
70213;SDS011;60138;55.808;37.078;2023-07-02T11:59:51;7.53;;;2.97;;
70213;SDS011;60138;55.808;37.078;2023-07-02T12:02:16;7.97;;;2.97;;
70213;SDS011;60138;55.808;37.078;2023-07-02T12:04:42;5.57;;;2.90;;
70213;SDS011;60138;55.808;37.078;2023-07-02T12:07:08;6.40;;;2.50;;
70213;SDS011;60138;55.808;37.078;2023-07-02T12:09:34;6.03;;;2.50;;
70213;SDS011;60138;55.808;37.078;2023-07-02T12:11:59;5.95;;;2.90;;
70213;SDS011;60138;55.808;37.078;2023-07-02T12:14:25;6.10;;;3.20;;
70213;SDS011;60138;55.808;37.078;2023-07-02T12:16:51;6.78;;;2.70;;
70213;SDS011;60138;55.808;37.078;2023-07-02T12:19:16;16.00;;;4.37;;
70213;SDS011;60138;55.808;37.078;2023-07-02T12:21:42;12.48;;;3.88;;
70213;SDS011;60138;55.808;37.078;2023-07-02T12:24:08;12.53;;;3.77;;
70213;SDS011;60138;55.808;37.078;2023-07-02T12:26:34;6.20;;;3.07;;
70213;SDS011;60138;55.808;37.078;2023-07-02T12:29:00;6.95;;;3.22;;
70213;SDS011;60138;55.808;37.078;2023-07-02T12:31:26;8.67;;;3.00;;
70213;SDS011;60138;55.808;37.078;2023-07-02T12:33:52;6.03;;;2.80;;
70213;SDS011;60138;55.808;37.078;2023-07-02T12:36:18;6.67;;;3.27;;
70213;SDS011;60138;55.808;37.078;2023-07-02T12:38:43;7.28;;;3.28;;
70213;SDS011;60138;55.808;37.078;2023-07-02T12:41:09;5.70;;;3.80;;
70213;SDS011;60138;55.808;37.078;2023-07-02T12:43:34;9.35;;;3.25;;
70213;SDS011;60138;55.808;37.078;2023-07-02T12:46:00;10.77;;;3.47;;
70213;SDS011;60138;55.808;37.078;2023-07-02T12:48:26;16.83;;;4.53;;
70213;SDS011;60138;55.808;37.078;2023-07-02T12:50:55;14.73;;;3.72;;
70213;SDS011;60138;55.808;37.078;2023-07-02T12:53:22;22.58;;;5.00;;
70213;SDS011;60138;55.808;37.078;2023-07-02T12:55:49;21.60;;;4.80;;
70213;SDS011;60138;55.808;37.078;2023-07-02T12:58:15;12.23;;;3.77;;
70213;SDS011;60138;55.808;37.078;2023-07-02T13:00:40;7.78;;;3.45;;
70213;SDS011;60138;55.808;37.078;2023-07-02T13:03:09;5.97;;;2.97;;
70213;SDS011;60138;55.808;37.078;2023-07-02T13:05:36;7.30;;;3.45;;
70213;SDS011;60138;55.808;37.078;2023-07-02T13:08:02;6.55;;;3.40;;
70213;SDS011;60138;55.808;37.078;2023-07-02T13:10:28;7.03;;;2.97;;
70213;SDS011;60138;55.808;37.078;2023-07-02T13:12:55;18.47;;;4.17;;
70213;SDS011;60138;55.808;37.078;2023-07-02T13:15:20;8.73;;;3.10;;
70213;SDS011;60138;55.808;37.078;2023-07-02T13:17:46;7.72;;;3.10;;
70213;SDS011;60138;55.808;37.078;2023-07-02T13:20:12;6.50;;;3.30;;
70213;SDS011;60138;55.808;37.078;2023-07-02T13:22:38;8.35;;;3.33;;
70213;SDS011;60138;55.808;37.078;2023-07-02T13:25:04;6.17;;;3.47;;
70213;SDS011;60138;55.808;37.078;2023-07-02T13:27:30;5.72;;;3.42;;
70213;SDS011;60138;55.808;37.078;2023-07-02T13:29:56;9.90;;;3.97;;
70213;SDS011;60138;55.808;37.078;2023-07-02T13:32:22;13.27;;;3.80;;
70213;SDS011;60138;55.808;37.078;2023-07-02T13:34:47;10.05;;;4.18;;
70213;SDS011;60138;55.808;37.078;2023-07-02T13:37:13;6.07;;;3.37;;
70213;SDS011;60138;55.808;37.078;2023-07-02T13:39:39;8.55;;;3.70;;
70213;SDS011;60138;55.808;37.078;2023-07-02T13:42:04;7.10;;;3.37;;
70213;SDS011;60138;55.808;37.078;2023-07-02T13:44:31;7.32;;;3.65;;
70213;SDS011;60138;55.808;37.078;2023-07-02T13:46:57;6.47;;;3.92;;
70213;SDS011;60138;55.808;37.078;2023-07-02T13:49:22;8.47;;;3.90;;
70213;SDS011;60138;55.808;37.078;2023-07-02T13:51:48;6.93;;;3.55;;
70213;SDS011;60138;55.808;37.078;2023-07-02T13:54:14;6.10;;;3.57;;
70213;SDS011;60138;55.808;37.078;2023-07-02T13:56:39;5.82;;;3.40;;
70213;SDS011;60138;55.808;37.078;2023-07-02T13:59:05;6.43;;;3.57;;
70213;SDS011;60138;55.808;37.078;2023-07-02T14:01:31;5.35;;;3.38;;
70213;SDS011;60138;55.808;37.078;2023-07-02T14:03:58;7.35;;;3.60;;
70213;SDS011;60138;55.808;37.078;2023-07-02T14:06:23;6.32;;;3.17;;
70213;SDS011;60138;55.808;37.078;2023-07-02T14:08:49;10.83;;;3.57;;
70213;SDS011;60138;55.808;37.078;2023-07-02T14:11:15;9.73;;;4.13;;
70213;SDS011;60138;55.808;37.078;2023-07-02T14:13:41;6.00;;;3.50;;
70213;SDS011;60138;55.808;37.078;2023-07-02T14:16:07;8.20;;;3.85;;
70213;SDS011;60138;55.808;37.078;2023-07-02T14:18:32;7.00;;;3.67;;
70213;SDS011;60138;55.808;37.078;2023-07-02T14:20:58;6.20;;;3.42;;
70213;SDS011;60138;55.808;37.078;2023-07-02T14:23:24;8.00;;;3.75;;
70213;SDS011;60138;55.808;37.078;2023-07-02T14:25:50;8.33;;;3.90;;
70213;SDS011;60138;55.808;37.078;2023-07-02T14:28:15;6.87;;;4.53;;
70213;SDS011;60138;55.808;37.078;2023-07-02T14:30:41;7.10;;;3.70;;
70213;SDS011;60138;55.808;37.078;2023-07-02T14:33:07;7.10;;;3.57;;
70213;SDS011;60138;55.808;37.078;2023-07-02T14:35:32;9.00;;;3.30;;
70213;SDS011;60138;55.808;37.078;2023-07-02T14:37:58;9.07;;;3.90;;